ADDS METAR Data INFO
IDs: Format: Raw Decoded Include TAF

Data at: 0840 UTC 21 Oct 2017

KBDL 210751Z 00000KT 10SM CLR 06/04 A3024 RMK AO2 SLP240 T00610039
KBDL 210651Z 00000KT 10SM FEW250 07/04 A3024 RMK AO2 SLP238 T00670044
KBDL 210551Z 27003KT 10SM SCT250 08/04 A3022 RMK AO2 SLP234 T00830044 10139 20078 51015
KBDL 210451Z 00000KT 10SM SCT250 11/03 A3021 RMK AO2 SLP231 T01060033 402220089
KBDL 210351Z 28003KT 10SM SCT250 12/04 A3020 RMK AO2 SLP226 T01170039
KBDL 210251Z 00000KT 10SM FEW250 12/04 A3018 RMK AO2 SLP219 T01220039 53018
KBDL 210151Z 30003KT 10SM CLR 13/04 A3015 RMK AO2 SLP210 T01280044
KBDL 210051Z 31005KT 10SM CLR 12/06 A3013 RMK AO2 SLP203 T01170056
KBDL 202351Z 29004KT 10SM CLR 14/05 A3012 RMK AO2 SLP200 T01390050 10222 20133 53018
KBDL 202251Z 30007KT 10SM FEW250 15/04 A3011 RMK AO2 SLP196 T01500044
KBDL 202151Z 31004KT 10SM FEW250 18/04 A3008 RMK AO2 SLP187 T01830044
KBDL 202051Z 32009KT 10SM CLR 21/03 A3007 RMK AO2 SLP182 T02110028 51005
KBDL 201951Z 31011KT 10SM CLR 22/03 A3007 RMK AO2 SLP181 T02170028
KBDL 201851Z 32009KT 10SM FEW250 22/02 A3006 RMK AO2 SLP179 T02220022
KBDL 201751Z 31011G17KT 10SM FEW250 22/02 A3005 RMK AO2 SLP177 T02170017 10217 20128 58018
KBDL 201651Z 32011G17KT 10SM CLR 21/02 A3008 RMK AO2 SLP186 T02110022
KBDL 201551Z 30014G19KT 10SM FEW250 20/02 A3009 RMK AO2 SLP190 T02000017
KBDL 201451Z 30013G18KT 10SM FEW250 19/02 A3011 RMK AO2 SLP195 T01890017 50003
KBDL 201351Z VRB05KT 10SM FEW250 17/04 A3012 RMK AO2 SLP199 T01670039
KBDL 201251Z 24005KT 10SM SCT250 15/05 A3011 RMK AO2 SLP197 T01500050
KBDL 201151Z 28003KT 10SM SCT250 13/04 A3010 RMK AO2 SLP192 T01280044 10156 20089 53016
KBDL 201051Z 28005KT 10SM SCT250 12/05 A3007 RMK AO2 SLP181 T01220050
KBDL 200951Z 28008KT 10SM FEW250 13/06 A3006 RMK AO2 SLP180 T01280056
KBDL 200851Z 32008KT 10SM SCT250 10/07 A3005 RMK AO2 SLP176 T01000072 53011
KBDL 200751Z 26005KT 10SM BKN250 12/08 A3004 RMK AO2 SLP172 T01220078
KBDL 200651Z 19004KT 10SM FEW230 BKN250 12/08 A3003 RMK AO2 SLP168 T01220083
KBDL 200551Z 21009KT 10SM FEW230 BKN250 15/08 A3002 RMK AO2 SLP166 T01500078 10161 20128 56002
KBDL 200451Z 22008KT 10SM BKN250 15/08 A3002 RMK AO2 SLP167 T01500078 402330044
KBDL 200351Z 18008KT 10SM BKN250 14/09 A3002 RMK AO2 SLP165 T01390094
KBDL 200251Z 16008KT 10SM FEW250 13/11 A3003 RMK AO2 SLP168 T01330106 50001
KBDL 200151Z 19007KT 10SM FEW250 16/10 A3004 RMK AO2 SLP172 T01560100
KBDL 200051Z 20010KT 10SM FEW250 16/09 A3003 RMK AO2 SLP168 T01560094
KBDL 192351Z COR 19011KT 10SM FEW250 16/09 A3003 RMK AO2 SLP168 T01610089 10233 20161 56003
KBDL 192251Z 19010KT 10SM BKN220 BKN250 17/07 A3003 RMK AO2 SLP170 T01720067
KBDL 192151Z 18010KT 10SM FEW090 FEW170 BKN220 BKN250 19/06 A3002 RMK AO2 SLP164 T01890061
KBDL 192051Z 19009G18KT 10SM FEW180 FEW220 FEW250 21/06 A3004 RMK AO2 SLP171 T02110056 56023